• Join FlightAware (Why Join?)
  • Login
  • US Flag 
02:17AM EDT


 

Airport Tracker/Info


-or-


 

Live Flight TrackerFlight Track Log ✈ SKW5564 ✈ 04-May-2013 ✈ KLAS - KSFO

Flight Track Log - Related Links

Times and Time Zones

All times are in EDT time to prevent confusion due to time zone crossing. See the SKW5564 flight status page for this flight to view local times or setup timezone preferences in your user account.

Time Position Orientation Groundspeed Altitude Reporting Facility
EDT Latitude Longitude Course Direction KTS MPH feet Rate Location/Type
03:47PM 36.0736 -115.1769 270° West 185 213 3,500  Level Los Angeles Center
03:48PM 36.0689 -115.2450 265° West 210 242 6,000 2,280 Climbing Los Angeles Center
03:49PM 36.0603 -115.2511 210° Southwest 206 237 6,500 1,200 Climbing Los Angeles Center
03:50PM 35.8929 -115.3947 204° Southwest  Level FlightAware Approximate
03:50PM 35.9981 -115.2869 205° Southwest 247 284 7,500  Level Los Angeles Center
03:51PM 35.8834 -115.5295 270° West  Level FlightAware Approximate
03:51PM 35.9425 -115.3317 213° Southwest 241 277 10,200  Level Los Angeles Center
03:52PM 35.8834 -115.6719 270° West  Level FlightAware Approximate
03:52PM 35.8881 -115.4083 229° Southwest 276 318 11,000  Level Los Angeles Center
03:53PM 35.8834 -115.8144 270° West  Level FlightAware Approximate
03:53PM 35.8878 -115.5206 270° West 310 357 11,100  Level Los Angeles Center
03:54PM 35.8903 -115.6578 271° West 336 387 12,700 1,920 Climbing Los Angeles Center
03:55PM 35.8925 -115.7547 272° West 336 387 15,100 2,640 Climbing Los Angeles Center
03:56PM 35.8944 -115.8972 271° West 339 390 18,200 2,520 Climbing Los Angeles Center
03:57PM 35.9281 -116.0061 291° West 362 417 20,400 2,100 Climbing Los Angeles Center
03:58PM 36.0086 -116.0992 317° Northwest 368 423 22,600 1,800 Climbing Los Angeles Center
03:59PM 36.0778 -116.1783 317° Northwest 375 432 24,200 1,560 Climbing Los Angeles Center
04:00PM 36.1553 -116.2658 318° Northwest 378 435 25,900 1,680 Climbing Los Angeles Center
04:01PM 36.2486 -116.3750 317° Northwest 381 438 27,700 1,500 Climbing Los Angeles Center
04:02PM 36.3314 -116.4708 317° Northwest 395 455 29,000 1,200 Climbing Los Angeles Center
04:03PM 36.4119 -116.5636 317° Northwest 396 456 30,300 1,020 Climbing Los Angeles Center
04:04PM 36.4936 -116.6600 317° Northwest 402 463 31,200 960 Climbing Los Angeles Center
04:05PM 36.5819 -116.7586 318° Northwest 412 474 32,400 1,200 Climbing Los Angeles Center
04:06PM 36.6822 -116.8347 329° Northwest 418 481 33,800 1,440 Climbing Los Angeles Center
04:07PM 36.7997 -116.9233 329° Northwest 411 473 35,400 960 Climbing Los Angeles Center
04:09PM 36.9144 -117.0144 328° Northwest 408 470 36,000 240 Climbing Oakland Center
04:10PM 37.0164 -117.0931 328° Northwest 420 483 36,000  Level Oakland Center
04:11PM 37.1233 -117.1761 328° Northwest 446 513 36,000  Level Oakland Center
04:12PM 37.2311 -117.2592 328° Northwest 452 520 36,000  Level Oakland Center
04:13PM 37.3375 -117.3383 329° Northwest 446 513 36,000  Level Oakland Center
04:14PM 37.4306 -117.4303 322° Northwest 429 494 36,000  Level Oakland Center
04:15PM 37.4753 -117.5617 293° West 414 476 36,000  Level Oakland Center
04:16PM 37.4861 -117.7028 276° West 408 470 36,000  Level Oakland Center
04:17PM 37.4933 -117.8436 274° West 405 466 36,000  Level Oakland Center
04:18PM 37.5011 -117.9864 274° West 405 466 36,000  Level Oakland Center
04:19PM 37.5092 -118.1292 274° West 408 470 36,000  Level Oakland Center
04:20PM 37.5169 -118.2750 274° West 414 476 36,000  Level Oakland Center
04:21PM 37.5258 -118.4511 274° West 418 481 36,000  Level Oakland Center
04:22PM 37.5333 -118.5953 274° West 414 476 36,000  Level Oakland Center
04:23PM 37.5417 -118.7433 274° West 420 483 36,000  Level Oakland Center
04:24PM 37.5047 -118.8811 251° West 422 486 36,000 -60 Level Oakland Center
04:25PM 37.4703 -119.0203 253° West 418 481 35,900  Descending Oakland Center
04:26PM 37.4806 -119.1703 275° West 451 519 36,000  Climbing Oakland Center
04:27PM 37.4925 -119.3167 276° West 442 509 36,000  Level Oakland Center
04:28PM 37.5067 -119.4900 276° West 436 502 36,000  Level Oakland Center
04:29PM 37.5203 -119.6431 276° West 438 504 36,000  Level Oakland Center
04:30PM 37.5311 -119.8011 275° West 450 518 36,000  Level Oakland Center
04:31PM 37.5453 -119.9525 277° West 444 511 36,000  Level Oakland Center
04:32PM 37.5581 -120.1022 276° West 439 505 36,000 -900 Level Oakland Center
04:33PM 37.5739 -120.2478 278° West 437 503 34,200 -2,520 Descending Oakland Center
04:34PM 37.5833 -120.4000 275° West 431 496 31,400 -3,120 Descending Northern Cal TRACON
04:35PM 37.6000 -120.5333 279° West 418 481 28,500 -3,000 Descending Northern Cal TRACON
04:36PM 37.6000 -120.6833 270° West 418 481 25,400 -3,000 Descending Northern Cal TRACON
04:37PM 37.6167 -120.8167 279° West 416 479 22,500 -2,760 Descending Northern Cal TRACON
04:38PM 37.6167 -120.9500 270° West 390 449 20,200 -2,160 Descending Northern Cal TRACON
04:39PM 37.6167 -121.0667 270° West 353 406 18,400 -2,100 Descending Northern Cal TRACON
04:40PM 37.6000 -121.1833 260° West 336 387 16,100 -2,280 Descending Northern Cal TRACON
04:41PM 37.5833 -121.3000 260° West 335 386 14,100 -2,040 Descending Northern Cal TRACON
04:42PM 37.5833 -121.4000 270° West 324 373 12,200 -1,560 Descending Northern Cal TRACON
04:43PM 37.5667 -121.5167 260° West 322 371 11,000 -600 Descending Northern Cal TRACON
04:44PM 37.5500 -121.6167 258° West 285 328 11,000  Level Northern Cal TRACON
04:45PM 37.5833 -121.7000 297° West 282 325 11,100 -60 Climbing Northern Cal TRACON
04:46PM 37.6167 -121.7667 302° West 254 292 10,900 -600 Descending Northern Cal TRACON
04:47PM 37.6667 -121.8333 313° West 234 269 10,000 -600 Descending Northern Cal TRACON
04:47PM 37.6644 -121.8781 266° West 238 274 10,000 -600 Level Oakland Center
04:48PM 37.6606 -121.9597 267° West 246 283 9,000 -540 Descending Oakland Center
04:49PM 37.5825 -121.9825 193° South 259 298 9,000  Level Oakland Center
04:50PM 37.5558 -121.9047 113° Southeast 245 282 9,000  Level Oakland Center
04:51PM 37.5367 -121.8281 107° East 233 268 9,000  Level Oakland Center
04:52PM 37.5189 -121.7533 107° East 225 259 9,000 -60 Level Oakland Center
04:54PM 37.4500 -121.7833 199° South 224 258 8,900 -480 Descending Northern Cal TRACON
04:55PM 37.4500 -121.8500 270° West 204 235 8,000 -1,140 Descending Northern Cal TRACON
04:56PM 37.4333 -121.9333 256° West 200 230 6,700 -1,020 Descending Northern Cal TRACON
04:57PM 37.4500 -121.9833 293° West 192 221 6,000 -600 Descending Northern Cal TRACON
04:58PM 37.4833 -122.0500 302° West 193 222 5,500 -900 Descending Northern Cal TRACON
04:59PM 37.5000 -122.1000 293° West 193 222 4,300 -960 Descending Northern Cal TRACON
05:00PM 37.5242 -122.1519 300° West 192 221 3,600 -720 Descending Oakland Center